Terminal Aerodrome Forecast
Issued by NWS

Home | Current Version | Previous Version | Text Only | Print | Product List | Glossary Off
Versions: 1 2 3 4 5 6 7 8 9 10 11 12 13 14 15 16 17 18 19 20 21 22 23 24 25

000
FTUS43 KGLD 221747
TAFMCK
TAF
KMCK 221747Z 2218/2318 30019G25KT P6SM SKC
     FM230000 30015KT P6SM SCT050 BKN100
     FM230300 30015G25KT P6SM OVC080
     FM230800 30020G30KT P6SM OVC025
     FM231300 33025G35KT 5SM -SN BR OVC020=

USA.gov is the U.S. government's official web portal to all federal, state and local government web resources and services.